Time;durP1;ratioP1;P1;durP2;ratioP2;P2;SDS_P1;SDS_P2;PMS_P1;PMS_P2;Temp;Humidity;BMP_temperature;BMP_pressure;BME280_temperature;BME280_humidity;BME280_pressure;Samples;Min_cycle;Max_cycle;Signal;HPM_P1;HPM_P2
2021/11/06 00:00:06;;;;;;;14.25;11.63;;;;;;;4.69;100.00;102142.22;677460;29;1577;-84
2021/11/06 00:00:32;;;;;;;15.88;12.07;;;;;;;4.81;100.00;102141.00;678725;29;1039;-84
2021/11/06 00:00:53;;;;;;;16.30;11.75;;;;;;;4.82;100.00;102156.63;680654;29;1627;-84
2021/11/06 00:01:13;;;;;;;15.23;11.53;;;;;;;4.76;100.00;102125.25;679257;29;4385;-84
2021/11/06 00:01:34;;;;;;;14.83;12.10;;;;;;;4.71;100.00;102119.88;682959;29;2855;-83
2021/11/06 00:01:55;;;;;;;15.40;12.40;;;;;;;4.66;100.00;102123.09;685147;28;1897;-84
2021/11/06 00:02:15;;;;;;;15.73;12.73;;;;;;;4.64;100.00;102130.81;682828;29;1286;-84
2021/11/06 00:02:35;;;;;;;16.77;13.30;;;;;;;4.60;100.00;102121.13;682326;28;1553;-84
2021/11/06 00:02:59;;;;;;;17.13;13.25;;;;;;;4.60;100.00;102119.41;681832;28;1577;-84
2021/11/06 00:03:19;;;;;;;16.60;12.82;;;;;;;4.63;100.00;102139.38;678186;29;1711;-84
2021/11/06 00:03:40;;;;;;;16.13;12.63;;;;;;;4.70;100.00;102143.13;677684;29;1074;-84
2021/11/06 00:04:01;;;;;;;14.37;12.23;;;;;;;4.71;100.00;102122.47;677516;29;4388;-84
2021/11/06 00:04:22;;;;;;;15.50;12.63;;;;;;;4.67;100.00;102117.97;679687;29;1250;-84
2021/11/06 00:04:42;;;;;;;17.13;12.90;;;;;;;4.63;100.00;102131.63;677423;29;2665;-84
2021/11/06 00:05:03;;;;;;;18.15;12.57;;;;;;;4.57;100.00;102139.13;681277;28;1500;-83
2021/11/06 00:05:26;;;;;;;16.85;12.18;;;;;;;4.55;100.00;102125.22;679119;29;3606;-84
2021/11/06 00:05:46;;;;;;;18.13;12.40;;;;;;;4.53;100.00;102140.69;676760;29;1723;-84
2021/11/06 00:06:07;;;;;;;17.27;12.35;;;;;;;4.53;100.00;102145.00;675256;29;3755;-84
2021/11/06 00:06:28;;;;;;;15.88;12.30;;;;;;;4.57;100.00;102144.31;675124;29;1649;-83
2021/11/06 00:06:48;;;;;;;15.25;12.30;;;;;;;4.62;100.00;102152.28;678450;29;1521;-83
2021/11/06 00:07:17;;;;;;;14.47;12.10;;;;;;;4.68;100.00;102118.84;675867;29;4455;-83
2021/11/06 00:07:57;;;;;;;18.42;12.35;;;;;;;4.83;100.00;102157.50;681124;29;1515;-84
2021/11/06 00:08:18;;;;;;;16.00;11.82;;;;;;;4.84;100.00;102144.59;682525;29;976;-83
2021/11/06 00:08:39;;;;;;;14.82;11.70;;;;;;;4.83;100.00;102149.72;683652;28;1485;-83
2021/11/06 00:08:59;;;;;;;15.53;11.80;;;;;;;4.77;100.00;102137.38;685279;28;1233;-83
2021/11/06 00:09:20;;;;;;;14.65;11.32;;;;;;;4.69;100.00;102147.41;679857;28;1536;-84
2021/11/06 00:09:41;;;;;;;14.73;11.30;;;;;;;4.63;100.00;102139.38;674604;29;3208;-83
2021/11/06 00:10:02;;;;;;;16.17;11.68;;;;;;;4.62;100.00;102150.56;676715;29;4415;-83
2021/11/06 00:10:23;;;;;;;15.23;11.80;;;;;;;4.62;100.00;102132.44;676842;29;1762;-83
2021/11/06 00:10:44;;;;;;;15.82;11.90;;;;;;;4.60;100.00;102126.31;676541;29;3005;-84
2021/11/06 00:11:05;;;;;;;14.05;11.52;;;;;;;4.60;100.00;102160.84;679575;29;1375;-84
2021/11/06 00:11:26;;;;;;;14.07;11.35;;;;;;;4.62;100.00;102124.66;682185;29;1798;-84
2021/11/06 00:11:56;;;;;;;15.88;11.85;;;;;;;4.63;100.00;102131.63;679511;29;1630;-83
2021/11/06 00:12:19;;;;;;;16.88;12.75;;;;;;;4.56;100.00;102137.34;679817;29;1361;-83
2021/11/06 00:12:40;;;;;;;15.85;12.52;;;;;;;4.55;100.00;102131.28;679434;29;1744;-83
2021/11/06 00:13:03;;;;;;;15.65;12.43;;;;;;;4.51;100.00;102147.50;677169;29;4373;-83
2021/11/06 00:13:24;;;;;;;16.13;12.37;;;;;;;4.50;100.00;102137.06;676556;28;1734;-84
2021/11/06 00:13:45;;;;;;;15.82;12.10;;;;;;;4.49;100.00;102150.88;675485;29;1197;-83
2021/11/06 00:14:05;;;;;;;16.13;11.77;;;;;;;4.49;100.00;102125.84;680522;29;3158;-83
2021/11/06 00:14:26;;;;;;;14.98;12.27;;;;;;;4.44;100.00;102127.34;678413;29;2569;-84
2021/11/06 00:14:46;;;;;;;15.40;12.30;;;;;;;4.45;100.00;102143.78;678304;29;1966;-83
2021/11/06 00:15:09;;;;;;;16.20;12.50;;;;;;;4.40;100.00;102152.22;680890;28;1273;-83
2021/11/06 00:15:30;;;;;;;17.45;12.00;;;;;;;4.36;100.00;102124.44;677884;29;1533;-84
2021/11/06 00:15:50;;;;;;;14.52;11.75;;;;;;;4.40;100.00;102151.31;675931;29;1726;-83
2021/11/06 00:16:11;;;;;;;14.73;12.07;;;;;;;4.47;100.00;102162.84;675018;29;4371;-83
2021/11/06 00:16:32;;;;;;;15.85;12.20;;;;;;;4.56;100.00;102124.41;678021;29;1302;-84
2021/11/06 00:16:53;;;;;;;16.30;12.18;;;;;;;4.50;100.00;102137.97;680428;29;1227;-84
2021/11/06 00:17:40;;;;;;;16.58;12.00;;;;;;;4.38;100.00;102133.13;679248;29;1416;-84
2021/11/06 00:18:17;;;;;;;15.77;12.68;;;;;;;4.33;100.00;102139.81;673773;29;1704;-84
2021/11/06 00:18:37;;;;;;;16.50;12.40;;;;;;;4.34;100.00;102141.59;673489;29;2075;-83
2021/11/06 00:18:58;;;;;;;15.57;12.18;;;;;;;4.38;100.00;102140.91;680974;28;1197;-83
2021/11/06 00:19:19;;;;;;;15.95;12.40;;;;;;;4.38;100.00;102127.94;683247;28;4487;-84
2021/11/06 00:19:40;;;;;;;16.37;12.53;;;;;;;4.35;100.00;102147.66;681151;28;1301;-84
2021/11/06 00:20:01;;;;;;;16.33;12.60;;;;;;;4.33;100.00;102134.63;681203;28;1473;-84
2021/11/06 00:20:24;;;;;;;15.27;11.98;;;;;;;4.34;100.00;102130.34;681883;28;1617;-83
2021/11/06 00:20:45;;;;;;;15.60;12.47;;;;;;;4.33;100.00;102128.56;681174;28;2585;-83
2021/11/06 00:21:05;;;;;;;16.17;12.30;;;;;;;4.32;100.00;102131.97;681745;28;1224;-83
2021/11/06 00:21:26;;;;;;;15.07;11.90;;;;;;;4.37;100.00;102131.34;683946;28;1469;-84
2021/11/06 00:21:46;;;;;;;15.55;12.07;;;;;;;4.41;100.00;102137.56;680320;28;1610;-84
2021/11/06 00:22:08;;;;;;;15.33;12.10;;;;;;;4.46;100.00;102132.56;680672;28;4341;-83
2021/11/06 00:22:28;;;;;;;14.63;12.02;;;;;;;4.41;100.00;102156.56;681149;29;1335;-83
2021/11/06 00:22:49;;;;;;;15.33;12.20;;;;;;;4.39;100.00;102134.91;677297;29;1778;-83
2021/11/06 00:23:09;;;;;;;17.67;12.70;;;;;;;4.36;100.00;102131.28;671393;29;3672;-84
2021/11/06 00:23:30;;;;;;;17.90;12.17;;;;;;;4.40;100.00;102128.00;677306;29;1648;-83
2021/11/06 00:23:50;;;;;;;16.10;11.65;;;;;;;4.52;100.00;102130.28;674925;29;1414;-83
2021/11/06 00:24:11;;;;;;;13.77;11.13;;;;;;;4.62;100.00;102123.78;678356;29;1505;-83
2021/11/06 00:24:32;;;;;;;14.55;11.50;;;;;;;4.66;100.00;102134.34;680349;29;1688;-83
2021/11/06 00:24:52;;;;;;;15.37;12.10;;;;;;;4.70;100.00;102125.88;673153;29;1497;-83
2021/11/06 00:25:14;;;;;;;15.63;11.80;;;;;;;4.64;100.00;102132.50;675679;29;4378;-83
2021/11/06 00:25:34;;;;;;;14.35;11.63;;;;;;;4.56;100.00;102129.59;674895;29;1335;-84
2021/11/06 00:25:55;;;;;;;15.53;11.93;;;;;;;4.52;100.00;102119.91;677915;29;1637;-84
2021/11/06 00:26:16;;;;;;;17.48;12.07;;;;;;;4.48;100.00;102133.53;683098;28;1701;-84
2021/11/06 00:26:36;;;;;;;15.88;12.07;;;;;;;4.46;100.00;102127.41;682498;28;1771;-83
2021/11/06 00:26:56;;;;;;;14.33;11.67;;;;;;;4.45;100.00;102128.25;677567;29;1296;-84
2021/11/06 00:27:17;;;;;;;14.90;11.90;;;;;;;4.46;100.00;102130.91;678966;29;2235;-83
2021/11/06 00:27:39;;;;;;;15.80;12.17;;;;;;;4.51;100.00;102131.09;677523;29;1627;-83
2021/11/06 00:28:00;;;;;;;15.27;11.85;;;;;;;4.52;100.00;102132.88;679684;28;4404;-83
2021/11/06 00:28:20;;;;;;;15.45;11.30;;;;;;;4.49;100.00;102135.31;680315;28;1677;-84
2021/11/06 00:28:41;;;;;;;15.52;12.15;;;;;;;4.43;100.00;102129.06;680410;29;1486;-83
2021/11/06 00:29:01;;;;;;;14.63;12.00;;;;;;;4.41;100.00;102133.25;679165;29;1201;-83
2021/11/06 00:29:21;;;;;;;16.23;12.13;;;;;;;4.38;100.00;102122.78;675518;29;1731;-84
2021/11/06 00:29:42;;;;;;;15.25;12.07;;;;;;;4.36;100.00;102121.84;678312;29;1715;-84
2021/11/06 00:30:08;;;;;;;15.03;12.10;;;;;;;4.38;100.00;102125.38;677841;29;1531;-83
2021/11/06 00:30:29;;;;;;;14.75;11.95;;;;;;;4.41;100.00;102130.66;678162;29;1273;-83
2021/11/06 00:30:49;;;;;;;14.63;11.98;;;;;;;4.40;100.00;102130.59;681011;28;1134;-84
2021/11/06 00:31:10;;;;;;;16.13;12.30;;;;;;;4.37;100.00;102127.88;676828;29;4549;-84
2021/11/06 00:31:31;;;;;;;16.63;12.18;;;;;;;4.37;100.00;102136.53;677029;29;1455;-83
2021/11/06 00:31:51;;;;;;;16.83;12.32;;;;;;;4.36;100.00;102160.69;680694;28;2776;-82
2021/11/06 00:32:12;;;;;;;14.73;11.57;;;;;;;4.35;100.00;102121.78;681391;29;1512;-83
2021/11/06 00:32:34;;;;;;;14.80;11.77;;;;;;;4.40;100.00;102130.59;679022;29;1704;-84
2021/11/06 00:32:55;;;;;;;16.05;12.07;;;;;;;4.37;100.00;102125.31;676126;29;1399;-84
2021/11/06 00:33:19;;;;;;;14.70;11.63;;;;;;;4.39;100.00;102124.56;678562;29;1512;-84
2021/11/06 00:33:39;;;;;;;15.07;11.10;;;;;;;4.42;100.00;102145.41;677733;29;1342;-83
2021/11/06 00:34:00;;;;;;;16.23;11.93;;;;;;;4.34;100.00;102149.34;677224;29;4432;-83
2021/11/06 00:34:20;;;;;;;15.53;11.90;;;;;;;4.23;100.00;102159.22;678240;29;1347;-84
2021/11/06 00:34:41;;;;;;;16.33;11.90;;;;;;;4.20;100.00;102147.84;680498;29;1930;-84
2021/11/06 00:35:02;;;;;;;16.48;12.23;;;;;;;4.14;100.00;102132.03;678199;29;1809;-83
2021/11/06 00:35:24;;;;;;;16.48;12.32;;;;;;;4.10;100.00;102136.19;679499;29;905;-83
2021/11/06 00:35:44;;;;;;;15.85;12.77;;;;;;;4.11;100.00;102152.59;680485;28;2508;-84
2021/11/06 00:36:05;;;;;;;18.93;12.50;;;;;;;4.12;100.00;102149.22;680460;29;1850;-83
2021/11/06 00:36:25;;;;;;;18.15;12.65;;;;;;;4.10;100.00;102159.50;677187;29;1498;-83
2021/11/06 00:36:46;;;;;;;16.50;12.60;;;;;;;4.04;100.00;102154.94;678119;28;1434;-83
2021/11/06 00:37:06;;;;;;;16.63;12.82;;;;;;;4.03;100.00;102135.03;664809;29;4388;-84
2021/11/06 00:37:27;;;;;;;17.40;13.10;;;;;;;4.05;100.00;102156.69;673426;29;1614;-83
2021/11/06 00:37:48;;;;;;;17.27;13.18;;;;;;;4.06;100.00;102179.16;673268;29;1468;-84
2021/11/06 00:38:09;;;;;;;17.77;13.18;;;;;;;4.05;100.00;102137.69;675877;29;1588;-84
2021/11/06 00:38:29;;;;;;;16.43;12.50;;;;;;;4.05;100.00;102141.16;675624;29;3055;-84
2021/11/06 00:38:51;;;;;;;15.30;12.25;;;;;;;4.05;100.00;102138.56;674589;29;4139;-83
2021/11/06 00:39:12;;;;;;;16.58;12.35;;;;;;;4.05;100.00;102138.56;675402;29;3534;-84
2021/11/06 00:39:35;;;;;;;15.43;12.07;;;;;;;4.04;100.00;102147.16;676018;29;1656;-84
2021/11/06 00:39:55;;;;;;;16.60;12.70;;;;;;;4.04;100.00;102139.41;675871;29;1386;-84
2021/11/06 00:40:17;;;;;;;17.00;12.87;;;;;;;4.05;100.00;102164.44;675154;29;4380;-83
2021/11/06 00:40:37;;;;;;;14.38;12.23;;;;;;;4.10;100.00;102146.56;676137;29;1846;-83
2021/11/06 00:41:00;;;;;;;15.43;12.47;;;;;;;4.16;100.00;102162.34;678140;29;1608;-83
2021/11/06 00:41:21;;;;;;;14.10;11.55;;;;;;;4.18;100.00;102155.56;679305;29;1475;-84
2021/11/06 00:41:42;;;;;;;14.98;11.45;;;;;;;4.22;100.00;102141.03;680587;28;3098;-84
2021/11/06 00:42:02;;;;;;;16.73;12.20;;;;;;;4.22;100.00;102148.78;684275;28;1335;-84
2021/11/06 00:42:23;;;;;;;15.88;12.02;;;;;;;4.24;100.00;102147.19;685924;28;2311;-84
2021/11/06 00:42:46;;;;;;;14.73;11.23;;;;;;;4.24;100.00;102175.66;682374;28;1471;-83
2021/11/06 00:43:07;;;;;;;13.73;11.13;;;;;;;4.29;100.00;102137.91;682760;28;4317;-83
2021/11/06 00:43:27;;;;;;;17.23;11.63;;;;;;;4.32;100.00;102144.91;678206;28;1784;-83
2021/11/06 00:43:48;;;;;;;14.70;11.52;;;;;;;4.28;100.00;102146.50;675895;29;1277;-83
2021/11/06 00:44:08;;;;;;;16.50;12.00;;;;;;;4.24;100.00;102162.72;675869;29;1448;-83
2021/11/06 00:44:29;;;;;;;15.45;11.40;;;;;;;4.23;100.00;102163.53;678217;29;2223;-83
2021/11/06 00:44:50;;;;;;;14.80;11.57;;;;;;;4.31;100.00;102164.75;675695;29;2110;-83
2021/11/06 00:45:11;;;;;;;15.73;11.80;;;;;;;4.34;100.00;102139.00;678703;29;1537;-83
2021/11/06 00:45:32;;;;;;;16.13;11.80;;;;;;;4.34;100.00;102140.72;676546;29;1641;-84
2021/11/06 00:45:52;;;;;;;15.27;11.80;;;;;;;4.31;100.00;102157.00;677913;29;1214;-83
2021/11/06 00:46:14;;;;;;;14.20;11.87;;;;;;;4.25;100.00;102142.06;677955;29;4419;-84
2021/11/06 00:46:35;;;;;;;13.77;10.80;;;;;;;4.23;100.00;102140.22;679777;29;1331;-84
2021/11/06 00:46:56;;;;;;;15.77;11.40;;;;;;;4.20;100.00;102159.09;680855;29;1452;-84
2021/11/06 00:47:16;;;;;;;15.90;11.57;;;;;;;4.20;100.00;102135.78;677268;29;1725;-84
2021/11/06 00:47:39;;;;;;;15.40;11.88;;;;;;;4.24;100.00;102149.78;677824;29;2439;-83
2021/11/06 00:47:59;;;;;;;15.07;11.93;;;;;;;4.23;100.00;102138.50;676318;29;1873;-84
2021/11/06 00:48:20;;;;;;;15.70;11.90;;;;;;;4.20;100.00;102145.28;677950;29;1565;-84
2021/11/06 00:48:40;;;;;;;14.60;11.10;;;;;;;4.20;100.00;102160.81;675234;29;1407;-83
2021/11/06 00:49:01;;;;;;;15.55;11.23;;;;;;;4.22;100.00;102136.75;677572;28;4414;-82
2021/11/06 00:49:21;;;;;;;16.38;11.05;;;;;;;4.22;100.00;102136.75;677838;29;1783;-84
2021/11/06 00:49:42;;;;;;;15.43;11.97;;;;;;;4.22;100.00;102138.44;674648;29;1714;-84
2021/11/06 00:50:05;;;;;;;14.98;11.63;;;;;;;4.21;100.00;102145.34;674908;29;1693;-84
2021/11/06 00:50:26;;;;;;;14.80;11.30;;;;;;;4.21;100.00;102165.13;674803;29;3306;-84
2021/11/06 00:50:47;;;;;;;15.88;11.00;;;;;;;4.22;100.00;102138.44;673293;29;2421;-84
2021/11/06 00:51:07;;;;;;;14.73;11.02;;;;;;;4.18;100.00;102140.03;676820;29;1469;-84
2021/11/06 00:51:28;;;;;;;14.93;11.60;;;;;;;4.17;100.00;102142.56;675163;29;1320;-83
2021/11/06 00:51:50;;;;;;;14.67;11.47;;;;;;;4.13;100.00;102154.47;675814;29;1422;-83
2021/11/06 00:52:11;;;;;;;15.18;11.55;;;;;;;4.12;100.00;102177.69;675295;29;4567;-83
2021/11/06 00:52:31;;;;;;;15.02;11.75;;;;;;;4.08;100.00;102154.25;674370;29;877;-84
2021/11/06 00:52:59;;;;;;;14.18;11.55;;;;;;;4.08;100.00;102158.53;676288;29;1199;-84
2021/11/06 00:53:19;;;;;;;14.98;11.52;;;;;;;4.13;100.00;102151.88;678269;29;3312;-84
2021/11/06 00:53:39;;;;;;;14.90;11.10;;;;;;;4.19;100.00;102161.59;678497;29;2097;-83
2021/11/06 00:54:03;;;;;;;14.50;11.20;;;;;;;4.19;100.00;102140.91;678715;29;1844;-84
2021/11/06 00:54:23;;;;;;;14.68;11.27;;;;;;;4.15;100.00;102170.06;674913;29;2112;-84
2021/11/06 00:54:44;;;;;;;14.13;10.80;;;;;;;4.17;100.00;102158.06;675351;29;1980;-84
2021/11/06 00:55:08;;;;;;;15.80;11.60;;;;;;;4.14;100.00;102144.97;676839;29;4366;-83
2021/11/06 00:55:29;;;;;;;14.73;11.13;;;;;;;4.11;100.00;102148.31;680617;29;1262;-84
2021/11/06 00:55:49;;;;;;;14.30;10.57;;;;;;;4.12;100.00;102142.31;680357;29;1161;-83
2021/11/06 00:56:13;;;;;;;14.93;10.87;;;;;;;4.12;100.00;102167.31;675744;29;1506;-83
2021/11/06 00:56:34;;;;;;;14.13;11.35;;;;;;;4.12;100.00;102156.97;672841;29;2174;-83
2021/11/06 00:57:04;;;;;;;13.75;11.00;;;;;;;4.13;100.00;102149.28;677108;29;1493;-84
2021/11/06 00:57:25;;;;;;;14.07;11.15;;;;;;;4.15;100.00;102159.69;676624;29;1190;-83
2021/11/06 00:57:47;;;;;;;14.70;10.77;;;;;;;4.12;100.00;102149.22;677797;29;1283;-84
2021/11/06 00:58:10;;;;;;;14.48;10.55;;;;;;;4.13;100.00;102175.16;677963;29;4445;-83
2021/11/06 00:58:31;;;;;;;14.77;10.55;;;;;;;4.13;100.00;102161.34;677376;29;1440;-84
2021/11/06 00:58:51;;;;;;;15.60;11.10;;;;;;;4.07;100.00;102136.94;680907;28;1625;-83
2021/11/06 00:59:12;;;;;;;15.15;10.85;;;;;;;4.05;100.00;102153.22;680872;28;2511;-84
2021/11/06 00:59:32;;;;;;;16.27;11.17;;;;;;;4.01;100.00;102152.19;680172;29;2928;-83
2021/11/06 00:59:53;;;;;;;16.08;11.02;;;;;;;4.03;100.00;102171.25;678571;29;1052;-84
2021/11/06 01:00:17;;;;;;;15.18;11.55;;;;;;;4.05;100.00;102142.88;677812;29;1169;-83
2021/11/06 01:00:37;;;;;;;15.35;10.82;;;;;;;4.04;100.00;102142.00;675389;29;1246;-83
2021/11/06 01:00:58;;;;;;;14.33;11.00;;;;;;;4.06;100.00;102145.50;676377;29;1314;-84
2021/11/06 01:01:18;;;;;;;14.85;11.18;;;;;;;4.04;100.00;102142.00;675157;28;4315;-83
2021/11/06 01:01:39;;;;;;;14.20;11.10;;;;;;;4.10;100.00;102143.97;673278;29;1364;-83
2021/11/06 01:02:00;;;;;;;14.52;10.50;;;;;;;4.15;100.00;102139.88;673173;29;1488;-83
2021/11/06 01:02:21;;;;;;;13.20;10.20;;;;;;;4.12;100.00;102147.50;672168;29;2428;-83
2021/11/06 01:02:41;;;;;;;14.93;10.57;;;;;;;4.06;100.00;102144.66;673011;29;4165;-83
2021/11/06 01:03:12;;;;;;;14.50;10.52;;;;;;;4.05;100.00;102142.88;673244;29;1750;-84
2021/11/06 01:03:32;;;;;;;13.52;10.77;;;;;;;4.02;100.00;102148.78;677670;29;1357;-83
2021/11/06 01:03:53;;;;;;;15.10;10.97;;;;;;;3.98;100.00;102162.41;678420;29;1556;-84
2021/11/06 01:04:14;;;;;;;15.70;11.20;;;;;;;3.98;100.00;102172.75;674374;29;4379;-84
2021/11/06 01:04:35;;;;;;;14.55;10.77;;;;;;;4.03;100.00;102139.31;675394;29;1375;-84
2021/11/06 01:04:55;;;;;;;15.87;11.37;;;;;;;4.01;100.00;102157.34;672335;29;1337;-84
2021/11/06 01:05:17;;;;;;;15.90;11.40;;;;;;;3.94;100.00;102139.78;678295;28;2397;-84
2021/11/06 01:05:38;;;;;;;15.85;11.50;;;;;;;3.90;100.00;102174.09;679065;29;2594;-85
2021/11/06 01:05:58;;;;;;;15.27;10.85;;;;;;;3.90;100.00;102148.22;677419;29;1615;-85
2021/11/06 01:06:19;;;;;;;16.67;11.10;;;;;;;3.97;100.00;102168.38;678385;29;1887;-85
2021/11/06 01:06:39;;;;;;;14.75;11.23;;;;;;;3.98;100.00;102170.16;672865;29;1316;-85
2021/11/06 01:07:00;;;;;;;15.47;10.93;;;;;;;3.96;100.00;102158.88;675001;29;4442;-84
2021/11/06 01:07:20;;;;;;;15.23;10.93;;;;;;;3.88;100.00;102145.56;674589;29;1531;-84
2021/11/06 01:07:42;;;;;;;14.98;11.07;;;;;;;3.80;100.00;102161.53;675121;29;1271;-85
2021/11/06 01:08:03;;;;;;;14.50;10.85;;;;;;;3.77;100.00;102172.63;678898;29;1496;-85
2021/11/06 01:08:23;;;;;;;13.95;10.80;;;;;;;3.69;100.00;102143.81;678531;28;3393;-85
2021/11/06 01:08:45;;;;;;;14.50;11.17;;;;;;;3.69;100.00;102143.81;680286;29;1446;-85
2021/11/06 01:09:07;;;;;;;16.25;11.38;;;;;;;3.70;100.00;102163.69;677782;29;1774;-84
2021/11/06 01:09:31;;;;;;;16.30;11.43;;;;;;;3.74;100.00;102146.63;675672;29;1248;-84
2021/11/06 01:09:52;;;;;;;14.18;11.25;;;;;;;3.75;100.00;102146.69;678103;29;1519;-84
2021/11/06 01:10:14;;;;;;;14.50;10.98;;;;;;;3.77;100.00;102140.69;674881;29;4389;-84
2021/11/06 01:10:35;;;;;;;15.02;11.00;;;;;;;3.78;100.00;102169.25;675156;29;1465;-84
2021/11/06 01:10:56;;;;;;;15.37;10.60;;;;;;;3.78;100.00;102145.97;677679;29;1271;-85
2021/11/06 01:11:17;;;;;;;16.73;11.40;;;;;;;3.74;100.00;102142.31;680887;28;3287;-85
2021/11/06 01:11:38;;;;;;;16.00;11.32;;;;;;;3.75;100.00;102148.38;680350;28;3398;-83
2021/11/06 01:11:59;;;;;;;15.18;11.25;;;;;;;3.77;100.00;102151.03;680409;29;2914;-84
2021/11/06 01:12:19;;;;;;;15.95;11.18;;;;;;;3.80;100.00;102171.91;680430;29;1260;-85
2021/11/06 01:12:43;;;;;;;17.45;11.18;;;;;;;3.84;100.00;102142.78;675377;29;1257;-84
2021/11/06 01:13:04;;;;;;;15.10;10.82;;;;;;;3.91;100.00;102179.31;674117;28;4463;-84
2021/11/06 01:13:27;;;;;;;14.48;10.93;;;;;;;4.01;100.00;102149.59;676162;29;1169;-84
2021/11/06 01:13:48;;;;;;;13.15;10.43;;;;;;;4.00;100.00;102171.13;677240;29;1400;-84
2021/11/06 01:14:09;;;;;;;13.83;10.27;;;;;;;3.94;100.00;102152.72;677730;29;3853;-84
2021/11/06 01:14:37;;;;;;;14.15;10.57;;;;;;;3.86;100.00;102170.50;678891;29;4082;-84
2021/11/06 01:14:57;;;;;;;13.57;10.43;;;;;;;3.81;100.00;102169.38;680184;28;1918;-85
2021/11/06 01:15:18;;;;;;;15.50;10.90;;;;;;;3.73;100.00;102143.13;675889;29;1423;-85
2021/11/06 01:15:41;;;;;;;17.38;11.40;;;;;;;3.65;100.00;102166.88;678528;29;1288;-84
2021/11/06 01:16:05;;;;;;;16.77;11.30;;;;;;;3.63;100.00;102181.41;674777;29;4400;-85
2021/11/06 01:16:25;;;;;;;14.98;10.85;;;;;;;3.64;100.00;102171.16;677783;29;1320;-85
2021/11/06 01:16:46;;;;;;;15.15;11.20;;;;;;;3.69;100.00;102176.56;677496;29;1141;-84
2021/11/06 01:17:07;;;;;;;15.63;10.80;;;;;;;3.73;100.00;102150.91;677476;29;3539;-84
2021/11/06 01:17:27;;;;;;;15.48;10.75;;;;;;;3.73;100.00;102168.13;678181;29;2630;-84
2021/11/06 01:17:47;;;;;;;14.25;10.68;;;;;;;3.69;100.00;102185.19;677131;29;1523;-85
2021/11/06 01:18:08;;;;;;;15.43;10.73;;;;;;;3.69;100.00;102161.03;676640;29;1387;-85
2021/11/06 01:18:29;;;;;;;15.27;10.80;;;;;;;3.73;100.00;102158.66;676004;29;1474;-85
2021/11/06 01:18:49;;;;;;;16.52;10.98;;;;;;;3.83;100.00;102187.56;676449;29;1244;-85
2021/11/06 01:19:10;;;;;;;16.03;10.70;;;;;;;3.88;100.00;102155.03;676243;28;4385;-84
2021/11/06 01:19:30;;;;;;;15.52;10.80;;;;;;;3.86;100.00;102156.66;678121;29;1542;-85
2021/11/06 01:19:51;;;;;;;15.30;10.93;;;;;;;3.81;100.00;102163.28;678376;29;1351;-84
2021/11/06 01:20:12;;;;;;;16.17;10.80;;;;;;;3.78;100.00;102152.81;678590;29;2022;-85
2021/11/06 01:20:33;;;;;;;14.85;10.50;;;;;;;3.73;100.00;102156.06;677341;29;1232;-85
2021/11/06 01:21:01;;;;;;;15.32;10.45;;;;;;;3.66;100.00;102148.84;677360;29;1555;-84
2021/11/06 01:21:21;;;;;;;14.18;10.80;;;;;;;3.72;100.00;102148.25;676451;29;1563;-85
2021/11/06 01:21:42;;;;;;;16.83;11.00;;;;;;;3.82;100.00;102165.97;676356;29;1453;-85
2021/11/06 01:22:03;;;;;;;14.77;11.00;;;;;;;3.91;100.00;102155.16;678286;29;4580;-85
2021/11/06 01:22:24;;;;;;;15.20;10.60;;;;;;;4.00;100.00;102150.44;680130;29;1431;-85
2021/11/06 01:22:45;;;;;;;14.17;10.20;;;;;;;3.94;100.00;102160.47;676827;29;1272;-84
2021/11/06 01:23:06;;;;;;;14.88;10.00;;;;;;;3.95;100.00;102156.22;676403;29;3053;-85
2021/11/06 01:23:26;;;;;;;14.18;9.90;;;;;;;3.90;100.00;102162.06;677692;29;2213;-85
2021/11/06 01:23:51;;;;;;;14.03;10.57;;;;;;;3.87;100.00;102161.00;682041;28;1376;-84
2021/11/06 01:24:11;;;;;;;14.23;10.88;;;;;;;3.91;100.00;102168.97;681991;29;1419;-85
2021/11/06 01:24:32;;;;;;;14.17;10.30;;;;;;;3.96;100.00;102153.69;678023;29;1385;-85
2021/11/06 01:24:52;;;;;;;12.68;9.90;;;;;;;3.95;100.00;102156.22;675834;29;1326;-84
2021/11/06 01:25:15;;;;;;;14.97;10.33;;;;;;;3.94;100.00;102151.84;674833;29;4434;-84
2021/11/06 01:25:36;;;;;;;14.75;10.50;;;;;;;3.88;100.00;102160.22;672838;29;1760;-86
2021/11/06 01:25:57;;;;;;;13.88;10.60;;;;;;;3.86;100.00;102161.81;672884;29;3239;-83
2021/11/06 01:26:18;;;;;;;13.32;10.32;;;;;;;3.85;100.00;102150.59;677570;29;3983;-84
2021/11/06 01:26:39;;;;;;;12.98;10.23;;;;;;;3.82;100.00;102178.91;677362;29;1240;-84
2021/11/06 01:26:59;;;;;;;14.45;10.38;;;;;;;3.83;100.00;102151.34;674227;29;1616;-84
2021/11/06 01:27:23;;;;;;;14.52;10.63;;;;;;;3.83;100.00;102157.38;674307;29;1184;-84
2021/11/06 01:27:43;;;;;;;13.95;10.20;;;;;;;3.82;100.00;102175.44;678301;29;1376;-85
2021/11/06 01:28:04;;;;;;;12.55;9.75;;;;;;;3.84;100.00;102184.16;672628;29;4436;-85
2021/11/06 01:28:25;;;;;;;14.40;10.05;;;;;;;3.82;100.00;102157.31;678826;29;1619;-84
2021/11/06 01:28:45;;;;;;;16.40;10.52;;;;;;;3.82;100.00;102154.72;678697;29;1120;-84
2021/11/06 01:29:06;;;;;;;13.73;10.13;;;;;;;3.83;100.00;102157.38;677918;29;3213;-85
2021/11/06 01:29:27;;;;;;;12.40;9.77;;;;;;;3.83;100.00;102172.91;677866;29;3740;-86
2021/11/06 01:29:48;;;;;;;12.85;10.02;;;;;;;3.81;100.00;102176.22;678171;29;1218;-85
2021/11/06 01:30:09;;;;;;;13.75;10.57;;;;;;;3.78;100.00;102152.81;678673;29;1479;-84
2021/11/06 01:30:30;;;;;;;15.23;10.63;;;;;;;3.70;100.00;102155.06;676674;29;1546;-85
2021/11/06 01:30:51;;;;;;;16.25;10.43;;;;;;;3.68;100.00;102154.09;675363;29;1258;-85
2021/11/06 01:31:11;;;;;;;14.93;10.30;;;;;;;3.65;100.00;102164.28;675960;29;4402;-85
2021/11/06 01:31:32;;;;;;;14.27;10.38;;;;;;;3.68;100.00;102151.50;674948;29;1260;-85
2021/11/06 01:31:52;;;;;;;15.33;10.53;;;;;;;3.73;100.00;102153.47;672621;29;1185;-84
2021/11/06 01:32:13;;;;;;;14.60;10.55;;;;;;;3.73;100.00;102153.47;676092;29;1356;-85
2021/11/06 01:32:33;;;;;;;15.27;10.53;;;;;;;3.72;100.00;102185.34;673602;29;1378;-85
2021/11/06 01:32:54;;;;;;;15.70;10.25;;;;;;;3.72;100.00;102153.41;676452;29;1295;-84
2021/11/06 01:33:15;;;;;;;16.05;10.27;;;;;;;3.74;100.00;102156.97;676734;29;2779;-84
2021/11/06 01:33:35;;;;;;;15.70;10.85;;;;;;;3.78;100.00;102164.06;675439;29;1467;-84
2021/11/06 01:33:56;;;;;;;15.20;10.80;;;;;;;3.76;100.00;102150.16;675360;29;1521;-84
2021/11/06 01:34:17;;;;;;;14.18;10.38;;;;;;;3.73;100.00;102153.47;674525;29;4326;-85
2021/11/06 01:34:43;;;;;;;13.70;10.00;;;;;;;3.63;100.00;102151.28;673558;29;1285;-84
2021/11/06 01:35:05;;;;;;;12.82;9.90;;;;;;;3.65;100.00;102152.22;675369;29;1389;-85
2021/11/06 01:35:26;;;;;;;13.85;10.18;;;;;;;3.73;100.00;102155.19;677583;29;1407;-84
2021/11/06 01:35:48;;;;;;;13.10;9.93;;;;;;;3.74;100.00;102157.84;674624;29;1333;-85
2021/11/06 01:36:11;;;;;;;15.10;11.00;;;;;;;3.69;100.00;102173.97;676260;29;1411;-84
2021/11/06 01:36:32;;;;;;;13.98;10.13;;;;;;;3.70;100.00;102153.34;677341;29;2943;-85
2021/11/06 01:36:52;;;;;;;14.53;10.00;;;;;;;3.70;100.00;102158.50;677369;29;1653;-85
2021/11/06 01:37:13;;;;;;;13.95;10.27;;;;;;;3.68;100.00;102155.00;680132;28;4550;-85
2021/11/06 01:37:33;;;;;;;12.98;9.70;;;;;;;3.65;100.00;102147.06;680315;28;1136;-85
2021/11/06 01:37:54;;;;;;;13.20;9.80;;;;;;;3.67;100.00;102165.22;680731;28;1236;-84
2021/11/06 01:38:15;;;;;;;13.90;10.40;;;;;;;3.64;100.00;102160.81;673602;29;1134;-85
2021/11/06 01:38:35;;;;;;;14.03;10.63;;;;;;;3.66;100.00;102155.72;674480;29;1559;-84
2021/11/06 01:38:59;;;;;;;13.83;10.03;;;;;;;3.62;100.00;102172.78;675417;29;1477;-84
2021/11/06 01:39:19;;;;;;;13.93;10.18;;;;;;;3.58;100.00;102163.09;674049;29;3555;-84
2021/11/06 01:39:40;;;;;;;13.53;9.90;;;;;;;3.60;100.00;102155.41;678610;29;4284;-84
2021/11/06 01:40:01;;;;;;;13.68;10.43;;;;;;;3.59;100.00;102164.88;678159;28;4458;-85